sensor_id;sensor_type;location;lat;lon;timestamp;pressure;altitude;pressure_sealevel;temperature;humidity
68456;BME280;55437;55.046;38.838;2023-07-16T00:00:35;99664.34;;;14.87;85.54
68456;BME280;55437;55.046;38.838;2023-07-16T00:03:02;99662.69;;;14.86;85.54
68456;BME280;55437;55.046;38.838;2023-07-16T00:05:28;99664.53;;;14.84;85.41
68456;BME280;55437;55.046;38.838;2023-07-16T00:07:54;99662.03;;;14.83;85.62
68456;BME280;55437;55.046;38.838;2023-07-16T00:10:20;99666.38;;;14.82;85.44
68456;BME280;55437;55.046;38.838;2023-07-16T00:12:46;99663.84;;;14.81;85.48
68456;BME280;55437;55.046;38.838;2023-07-16T00:15:11;99669.09;;;14.79;85.51
68456;BME280;55437;55.046;38.838;2023-07-16T00:17:37;99665.91;;;14.74;85.53
68456;BME280;55437;55.046;38.838;2023-07-16T00:20:04;99670.16;;;14.75;85.65
68456;BME280;55437;55.046;38.838;2023-07-16T00:22:33;99666.75;;;14.74;85.70
68456;BME280;55437;55.046;38.838;2023-07-16T00:24:59;99673.75;;;14.72;85.59
68456;BME280;55437;55.046;38.838;2023-07-16T00:27:25;99668.75;;;14.69;85.69
68456;BME280;55437;55.046;38.838;2023-07-16T00:29:52;99677.19;;;14.73;85.72
68456;BME280;55437;55.046;38.838;2023-07-16T00:32:18;99680.84;;;14.69;85.83
68456;BME280;55437;55.046;38.838;2023-07-16T00:34:43;99680.00;;;14.68;85.72
68456;BME280;55437;55.046;38.838;2023-07-16T00:37:10;99680.91;;;14.67;85.73
68456;BME280;55437;55.046;38.838;2023-07-16T00:39:36;99680.16;;;14.65;85.66
68456;BME280;55437;55.046;38.838;2023-07-16T00:42:02;99675.81;;;14.66;85.80
68456;BME280;55437;55.046;38.838;2023-07-16T00:44:29;99680.16;;;14.65;85.69
68456;BME280;55437;55.046;38.838;2023-07-16T00:46:55;99677.63;;;14.64;85.85
68456;BME280;55437;55.046;38.838;2023-07-16T00:49:22;99670.97;;;14.60;85.81
68456;BME280;55437;55.046;38.838;2023-07-16T00:51:49;99674.28;;;14.62;85.80
68456;BME280;55437;55.046;38.838;2023-07-16T00:54:17;99682.16;;;14.60;85.63
68456;BME280;55437;55.046;38.838;2023-07-16T00:56:43;99685.72;;;14.58;85.68
68456;BME280;55437;55.046;38.838;2023-07-16T00:59:09;99683.28;;;14.55;85.82
68456;BME280;55437;55.046;38.838;2023-07-16T01:01:37;99682.50;;;14.53;85.86
68456;BME280;55437;55.046;38.838;2023-07-16T01:04:04;99683.44;;;14.52;85.76
68456;BME280;55437;55.046;38.838;2023-07-16T01:06:37;99686.91;;;14.51;85.56
68456;BME280;55437;55.046;38.838;2023-07-16T01:09:19;99688.66;;;14.50;85.63
68456;BME280;55437;55.046;38.838;2023-07-16T01:11:47;99693.09;;;14.48;85.61
68456;BME280;55437;55.046;38.838;2023-07-16T01:14:14;99694.84;;;14.48;85.66
68456;BME280;55437;55.046;38.838;2023-07-16T01:16:41;99696.41;;;14.50;85.65
68456;BME280;55437;55.046;38.838;2023-07-16T01:19:09;99699.84;;;14.51;85.49
68456;BME280;55437;55.046;38.838;2023-07-16T01:21:47;99688.59;;;14.52;85.52
68456;BME280;55437;55.046;38.838;2023-07-16T01:30:04;99694.06;;;14.63;85.50
68456;BME280;55437;55.046;38.838;2023-07-16T01:32:35;99694.81;;;14.65;85.60
68456;BME280;55437;55.046;38.838;2023-07-16T01:35:02;99698.09;;;14.68;85.41
68456;BME280;55437;55.046;38.838;2023-07-16T01:37:30;99697.75;;;14.74;85.31
68456;BME280;55437;55.046;38.838;2023-07-16T01:39:57;99703.66;;;14.94;84.97
68456;BME280;55437;55.046;38.838;2023-07-16T01:42:23;99704.81;;;15.21;84.54
68456;BME280;55437;55.046;38.838;2023-07-16T01:44:49;99702.75;;;15.59;83.69
68456;BME280;55437;55.046;38.838;2023-07-16T01:50:12;99709.78;;;16.78;81.02
68456;BME280;55437;55.046;38.838;2023-07-16T01:52:38;99710.78;;;17.33;79.18
68456;BME280;55437;55.046;38.838;2023-07-16T01:55:04;99716.56;;;17.79;77.65
68456;BME280;55437;55.046;38.838;2023-07-16T01:57:30;99714.13;;;17.90;76.91
68456;BME280;55437;55.046;38.838;2023-07-16T01:59:56;99720.41;;;17.73;77.39
68456;BME280;55437;55.046;38.838;2023-07-16T02:02:22;99719.31;;;17.49;77.47
68456;BME280;55437;55.046;38.838;2023-07-16T02:04:48;99715.25;;;17.31;77.49
68456;BME280;55437;55.046;38.838;2023-07-16T02:07:13;99716.00;;;17.18;77.77
68456;BME280;55437;55.046;38.838;2023-07-16T02:09:39;99714.88;;;17.08;78.04
68456;BME280;55437;55.046;38.838;2023-07-16T02:12:06;99719.63;;;17.02;77.68
68456;BME280;55437;55.046;38.838;2023-07-16T02:14:32;99720.91;;;16.95;77.90
68456;BME280;55437;55.046;38.838;2023-07-16T02:16:58;99723.78;;;16.90;77.90
68456;BME280;55437;55.046;38.838;2023-07-16T02:19:24;99720.53;;;16.86;77.92
68456;BME280;55437;55.046;38.838;2023-07-16T02:21:52;99725.72;;;16.86;78.16
68456;BME280;55437;55.046;38.838;2023-07-16T02:24:18;99723.97;;;16.87;78.15
68456;BME280;55437;55.046;38.838;2023-07-16T02:26:44;99724.06;;;16.85;78.13
68456;BME280;55437;55.046;38.838;2023-07-16T02:29:11;99715.72;;;16.95;78.09
68456;BME280;55437;55.046;38.838;2023-07-16T02:31:37;99718.78;;;17.01;77.92
68456;BME280;55437;55.046;38.838;2023-07-16T02:34:03;99715.91;;;17.06;77.76
68456;BME280;55437;55.046;38.838;2023-07-16T02:36:32;99717.66;;;17.05;77.80
68456;BME280;55437;55.046;38.838;2023-07-16T02:38:58;99714.22;;;17.05;77.85
68456;BME280;55437;55.046;38.838;2023-07-16T02:41:24;99710.63;;;17.07;77.79
68456;BME280;55437;55.046;38.838;2023-07-16T02:44:03;99713.22;;;17.07;77.96
68456;BME280;55437;55.046;38.838;2023-07-16T02:46:29;99727.59;;;17.13;77.98
68456;BME280;55437;55.046;38.838;2023-07-16T02:48:55;99727.28;;;17.17;77.91
68456;BME280;55437;55.046;38.838;2023-07-16T02:51:21;99720.16;;;17.21;77.76
68456;BME280;55437;55.046;38.838;2023-07-16T02:53:46;99728.78;;;17.21;77.83
68456;BME280;55437;55.046;38.838;2023-07-16T02:56:12;99727.69;;;17.11;78.19
68456;BME280;55437;55.046;38.838;2023-07-16T02:58:38;99737.22;;;17.11;78.30
68456;BME280;55437;55.046;38.838;2023-07-16T03:01:04;99733.72;;;17.12;78.26
68456;BME280;55437;55.046;38.838;2023-07-16T03:03:30;99739.53;;;17.15;78.40
68456;BME280;55437;55.046;38.838;2023-07-16T03:05:56;99741.75;;;17.21;78.44
68456;BME280;55437;55.046;38.838;2023-07-16T03:08:23;99745.84;;;17.25;78.54
68456;BME280;55437;55.046;38.838;2023-07-16T03:10:52;99741.19;;;17.31;78.36
68456;BME280;55437;55.046;38.838;2023-07-16T03:13:18;99739.78;;;17.39;78.32
68456;BME280;55437;55.046;38.838;2023-07-16T03:16:03;99745.53;;;17.44;78.05
68456;BME280;55437;55.046;38.838;2023-07-16T03:18:30;99756.00;;;17.43;77.94
68456;BME280;55437;55.046;38.838;2023-07-16T03:20:58;99753.59;;;17.40;77.93
68456;BME280;55437;55.046;38.838;2023-07-16T03:23:25;99747.56;;;17.39;78.05
68456;BME280;55437;55.046;38.838;2023-07-16T03:25:51;99755.09;;;17.44;77.87
68456;BME280;55437;55.046;38.838;2023-07-16T03:28:17;99758.91;;;17.38;78.11
68456;BME280;55437;55.046;38.838;2023-07-16T03:30:51;99764.09;;;17.38;78.02
68456;BME280;55437;55.046;38.838;2023-07-16T03:33:18;99753.81;;;17.37;78.28
68456;BME280;55437;55.046;38.838;2023-07-16T03:35:45;99754.16;;;17.45;78.04
68456;BME280;55437;55.046;38.838;2023-07-16T03:38:13;99753.69;;;17.52;77.73
68456;BME280;55437;55.046;38.838;2023-07-16T03:40:39;99749.78;;;17.59;77.70
68456;BME280;55437;55.046;38.838;2023-07-16T03:43:06;99748.88;;;17.60;77.56
68456;BME280;55437;55.046;38.838;2023-07-16T03:45:32;99752.94;;;17.64;77.28
68456;BME280;55437;55.046;38.838;2023-07-16T03:47:58;99751.75;;;17.70;77.01
68456;BME280;55437;55.046;38.838;2023-07-16T03:50:25;99750.91;;;17.70;77.06
68456;BME280;55437;55.046;38.838;2023-07-16T03:52:51;99767.34;;;17.70;77.33
68456;BME280;55437;55.046;38.838;2023-07-16T03:55:16;99762.88;;;17.72;77.23
68456;BME280;55437;55.046;38.838;2023-07-16T03:57:43;99770.09;;;17.81;77.02
68456;BME280;55437;55.046;38.838;2023-07-16T04:00:09;99769.06;;;17.84;77.05
68456;BME280;55437;55.046;38.838;2023-07-16T04:02:46;99772.09;;;17.90;76.90
68456;BME280;55437;55.046;38.838;2023-07-16T04:05:16;99772.25;;;18.02;76.76
68456;BME280;55437;55.046;38.838;2023-07-16T04:07:43;99766.28;;;18.14;76.23
68456;BME280;55437;55.046;38.838;2023-07-16T04:10:09;99763.19;;;18.21;76.14
68456;BME280;55437;55.046;38.838;2023-07-16T04:12:35;99768.72;;;18.29;75.63
68456;BME280;55437;55.046;38.838;2023-07-16T04:15:01;99767.09;;;18.41;75.46
68456;BME280;55437;55.046;38.838;2023-07-16T04:17:32;99765.13;;;18.45;75.28
68456;BME280;55437;55.046;38.838;2023-07-16T04:19:58;99772.06;;;18.58;74.98
68456;BME280;55437;55.046;38.838;2023-07-16T04:22:23;99773.31;;;18.65;75.12
68456;BME280;55437;55.046;38.838;2023-07-16T04:24:49;99770.63;;;18.67;74.77
68456;BME280;55437;55.046;38.838;2023-07-16T04:27:15;99771.44;;;18.67;74.53
68456;BME280;55437;55.046;38.838;2023-07-16T04:29:41;99773.97;;;18.82;74.51
68456;BME280;55437;55.046;38.838;2023-07-16T04:32:07;99770.13;;;19.00;74.28
68456;BME280;55437;55.046;38.838;2023-07-16T04:34:35;99766.97;;;19.20;73.49
68456;BME280;55437;55.046;38.838;2023-07-16T04:37:00;99761.38;;;19.26;73.01
68456;BME280;55437;55.046;38.838;2023-07-16T04:39:26;99762.00;;;19.30;72.84
68456;BME280;55437;55.046;38.838;2023-07-16T04:41:52;99758.31;;;19.45;72.56
68456;BME280;55437;55.046;38.838;2023-07-16T04:44:18;99754.47;;;19.63;72.28
68456;BME280;55437;55.046;38.838;2023-07-16T04:46:44;99754.59;;;19.86;71.56
68456;BME280;55437;55.046;38.838;2023-07-16T04:49:09;99753.81;;;19.96;70.92
68456;BME280;55437;55.046;38.838;2023-07-16T04:51:36;99762.88;;;20.03;70.98
68456;BME280;55437;55.046;38.838;2023-07-16T04:54:01;99766.91;;;20.07;70.46
68456;BME280;55437;55.046;38.838;2023-07-16T04:56:27;99763.00;;;20.02;70.86
68456;BME280;55437;55.046;38.838;2023-07-16T04:58:53;99763.63;;;19.93;70.91
68456;BME280;55437;55.046;38.838;2023-07-16T05:01:19;99760.59;;;19.75;71.06
68456;BME280;55437;55.046;38.838;2023-07-16T05:03:46;99758.09;;;19.73;71.11
68456;BME280;55437;55.046;38.838;2023-07-16T05:06:12;99760.16;;;19.68;71.12
68456;BME280;55437;55.046;38.838;2023-07-16T05:08:38;99754.47;;;19.63;71.29
68456;BME280;55437;55.046;38.838;2023-07-16T05:11:04;99758.91;;;19.74;71.22
68456;BME280;55437;55.046;38.838;2023-07-16T05:13:30;99749.28;;;19.87;71.05
68456;BME280;55437;55.046;38.838;2023-07-16T05:15:56;99749.63;;;20.06;70.69
68456;BME280;55437;55.046;38.838;2023-07-16T05:18:21;99746.34;;;20.16;70.23
68456;BME280;55437;55.046;38.838;2023-07-16T05:20:48;99746.50;;;20.25;70.18
68456;BME280;55437;55.046;38.838;2023-07-16T05:23:15;99747.22;;;20.51;69.51
68456;BME280;55437;55.046;38.838;2023-07-16T05:25:48;99755.34;;;20.81;68.74
68456;BME280;55437;55.046;38.838;2023-07-16T05:28:15;99751.50;;;21.09;67.90
68456;BME280;55437;55.046;38.838;2023-07-16T05:30:41;99755.44;;;21.26;67.20
68456;BME280;55437;55.046;38.838;2023-07-16T05:33:07;99756.84;;;21.41;66.66
68456;BME280;55437;55.046;38.838;2023-07-16T05:35:32;99755.44;;;21.60;66.08
68456;BME280;55437;55.046;38.838;2023-07-16T05:37:59;99764.19;;;21.70;65.70
68456;BME280;55437;55.046;38.838;2023-07-16T05:40:24;99761.56;;;21.81;65.60
68456;BME280;55437;55.046;38.838;2023-07-16T05:42:51;99764.03;;;21.93;64.92
68456;BME280;55437;55.046;38.838;2023-07-16T05:45:17;99762.00;;;22.08;64.52
68456;BME280;55437;55.046;38.838;2023-07-16T05:47:43;99767.75;;;22.23;64.02
68456;BME280;55437;55.046;38.838;2023-07-16T05:50:09;99763.47;;;22.33;63.36
68456;BME280;55437;55.046;38.838;2023-07-16T05:52:35;99761.44;;;22.57;62.81
68456;BME280;55437;55.046;38.838;2023-07-16T05:55:01;99762.31;;;22.47;62.98
68456;BME280;55437;55.046;38.838;2023-07-16T05:57:29;99761.88;;;22.42;63.05
68456;BME280;55437;55.046;38.838;2023-07-16T05:59:55;99762.06;;;22.50;63.06
68456;BME280;55437;55.046;38.838;2023-07-16T06:02:21;99765.44;;;22.61;63.00
68456;BME280;55437;55.046;38.838;2023-07-16T06:04:48;99759.78;;;22.56;62.68
68456;BME280;55437;55.046;38.838;2023-07-16T06:07:13;99757.16;;;22.56;62.68
68456;BME280;55437;55.046;38.838;2023-07-16T06:09:39;99754.56;;;22.56;62.49
68456;BME280;55437;55.046;38.838;2023-07-16T06:12:07;99757.34;;;22.64;62.03
68456;BME280;55437;55.046;38.838;2023-07-16T06:14:33;99762.47;;;22.66;61.98
68456;BME280;55437;55.046;38.838;2023-07-16T06:17:00;99760.09;;;22.84;61.17
68456;BME280;55437;55.046;38.838;2023-07-16T06:23:03;99759.19;;;22.94;61.23
68456;BME280;55437;55.046;38.838;2023-07-16T06:25:30;99762.72;;;22.84;61.29
68456;BME280;55437;55.046;38.838;2023-07-16T06:27:55;99766.53;;;22.59;61.67
68456;BME280;55437;55.046;38.838;2023-07-16T06:30:21;99761.81;;;22.53;61.68
68456;BME280;55437;55.046;38.838;2023-07-16T06:32:47;99761.03;;;22.41;61.99
68456;BME280;55437;55.046;38.838;2023-07-16T06:35:14;99764.84;;;22.37;62.17
68456;BME280;55437;55.046;38.838;2023-07-16T06:37:40;99765.38;;;22.52;62.34
68456;BME280;55437;55.046;38.838;2023-07-16T06:40:06;99763.78;;;22.60;62.38
68456;BME280;55437;55.046;38.838;2023-07-16T06:42:32;99763.41;;;22.65;61.99
68456;BME280;55437;55.046;38.838;2023-07-16T06:44:58;99772.25;;;22.85;61.31
68456;BME280;55437;55.046;38.838;2023-07-16T06:47:24;99764.78;;;23.01;60.80
68456;BME280;55437;55.046;38.838;2023-07-16T06:49:50;99763.81;;;23.02;60.34
68456;BME280;55437;55.046;38.838;2023-07-16T06:52:20;99766.94;;;22.96;60.15
68456;BME280;55437;55.046;38.838;2023-07-16T06:54:46;99772.91;;;23.28;60.09
68456;BME280;55437;55.046;38.838;2023-07-16T06:57:13;99772.53;;;23.43;59.52
68456;BME280;55437;55.046;38.838;2023-07-16T06:59:38;99777.44;;;23.57;58.90
68456;BME280;55437;55.046;38.838;2023-07-16T07:02:05;99770.38;;;23.88;58.55
68456;BME280;55437;55.046;38.838;2023-07-16T07:04:31;99775.75;;;24.15;58.21
68456;BME280;55437;55.046;38.838;2023-07-16T07:06:56;99771.41;;;24.25;57.65
68456;BME280;55437;55.046;38.838;2023-07-16T07:09:22;99772.63;;;24.31;57.24
68456;BME280;55437;55.046;38.838;2023-07-16T07:11:48;99769.03;;;24.41;56.61
68456;BME280;55437;55.046;38.838;2023-07-16T07:14:14;99769.75;;;24.24;56.75
68456;BME280;55437;55.046;38.838;2023-07-16T07:16:40;99774.28;;;24.41;56.42
68456;BME280;55437;55.046;38.838;2023-07-16T07:19:06;99780.38;;;24.32;56.88
68456;BME280;55437;55.046;38.838;2023-07-16T07:21:32;99769.84;;;24.13;57.48
68456;BME280;55437;55.046;38.838;2023-07-16T07:23:58;99778.13;;;24.09;58.08
68456;BME280;55437;55.046;38.838;2023-07-16T07:26:25;99775.47;;;23.99;58.03
68456;BME280;55437;55.046;38.838;2023-07-16T07:28:54;99773.38;;;23.74;58.05
68456;BME280;55437;55.046;38.838;2023-07-16T07:31:20;99784.22;;;23.59;58.54
68456;BME280;55437;55.046;38.838;2023-07-16T07:33:45;99781.63;;;23.39;58.75
68456;BME280;55437;55.046;38.838;2023-07-16T07:36:11;99780.63;;;23.30;58.77
68456;BME280;55437;55.046;38.838;2023-07-16T07:38:37;99787.91;;;23.26;59.33
68456;BME280;55437;55.046;38.838;2023-07-16T07:41:05;99789.28;;;23.00;59.70
68456;BME280;55437;55.046;38.838;2023-07-16T07:43:31;99781.63;;;22.67;60.38
68456;BME280;55437;55.046;38.838;2023-07-16T07:45:57;99773.25;;;22.52;60.91
68456;BME280;55437;55.046;38.838;2023-07-16T07:48:23;99785.06;;;22.67;60.92
68456;BME280;55437;55.046;38.838;2023-07-16T07:50:49;99777.03;;;23.01;60.30
68456;BME280;55437;55.046;38.838;2023-07-16T07:53:15;99776.78;;;23.34;59.62
68456;BME280;55437;55.046;38.838;2023-07-16T07:55:43;99776.41;;;23.39;59.31
68456;BME280;55437;55.046;38.838;2023-07-16T07:58:10;99782.44;;;23.29;59.11
68456;BME280;55437;55.046;38.838;2023-07-16T08:00:36;99769.09;;;23.12;59.45
68456;BME280;55437;55.046;38.838;2023-07-16T08:03:02;99769.44;;;22.97;59.66
68456;BME280;55437;55.046;38.838;2023-07-16T08:05:28;99773.81;;;22.55;60.30
68456;BME280;55437;55.046;38.838;2023-07-16T08:07:54;99779.00;;;22.35;60.55
68456;BME280;55437;55.046;38.838;2023-07-16T08:10:21;99781.78;;;22.54;61.14
68456;BME280;55437;55.046;38.838;2023-07-16T08:12:48;99776.47;;;22.76;60.46
68456;BME280;55437;55.046;38.838;2023-07-16T08:15:14;99777.66;;;23.14;59.59
68456;BME280;55437;55.046;38.838;2023-07-16T08:17:41;99783.38;;;23.59;58.71
68456;BME280;55437;55.046;38.838;2023-07-16T08:20:08;99774.44;;;23.61;58.21
68456;BME280;55437;55.046;38.838;2023-07-16T08:22:34;99767.69;;;23.68;57.14
68456;BME280;55437;55.046;38.838;2023-07-16T08:25:00;99769.06;;;23.73;57.57
68456;BME280;55437;55.046;38.838;2023-07-16T08:27:29;99766.00;;;23.67;57.25
68456;BME280;55437;55.046;38.838;2023-07-16T08:29:55;99770.69;;;23.54;57.38
68456;BME280;55437;55.046;38.838;2023-07-16T08:32:22;99770.97;;;23.61;57.56
68456;BME280;55437;55.046;38.838;2023-07-16T08:34:48;99771.25;;;23.67;56.76
68456;BME280;55437;55.046;38.838;2023-07-16T08:37:14;99778.00;;;23.60;56.16
68456;BME280;55437;55.046;38.838;2023-07-16T08:39:40;99779.28;;;23.66;56.19
68456;BME280;55437;55.046;38.838;2023-07-16T08:42:09;99775.31;;;23.81;56.19
68456;BME280;55437;55.046;38.838;2023-07-16T08:44:37;99775.69;;;24.26;56.01
68456;BME280;55437;55.046;38.838;2023-07-16T08:47:05;99772.22;;;24.55;55.10
68456;BME280;55437;55.046;38.838;2023-07-16T08:49:33;99773.72;;;24.67;54.32
68456;BME280;55437;55.046;38.838;2023-07-16T08:52:01;99761.41;;;24.67;53.81
68456;BME280;55437;55.046;38.838;2023-07-16T08:54:28;99768.88;;;24.72;54.21
68456;BME280;55437;55.046;38.838;2023-07-16T08:56:55;99770.00;;;24.60;53.89
68456;BME280;55437;55.046;38.838;2023-07-16T08:59:22;99767.38;;;24.40;54.60
68456;BME280;55437;55.046;38.838;2023-07-16T09:01:48;99768.09;;;24.33;55.46
68456;BME280;55437;55.046;38.838;2023-07-16T09:04:15;99769.59;;;24.35;55.17
68456;BME280;55437;55.046;38.838;2023-07-16T09:06:43;99766.97;;;24.45;55.82
68456;BME280;55437;55.046;38.838;2023-07-16T09:09:22;99767.19;;;24.90;55.14
68456;BME280;55437;55.046;38.838;2023-07-16T09:11:51;99769.34;;;25.24;53.42
68456;BME280;55437;55.046;38.838;2023-07-16T09:14:20;99770.66;;;25.37;53.32
68456;BME280;55437;55.046;38.838;2023-07-16T09:16:53;99751.91;;;25.50;53.25
68456;BME280;55437;55.046;38.838;2023-07-16T09:19:20;99758.41;;;25.83;53.73
68456;BME280;55437;55.046;38.838;2023-07-16T09:21:47;99752.56;;;26.07;52.01
68456;BME280;55437;55.046;38.838;2023-07-16T09:24:14;99758.19;;;25.94;50.48
68456;BME280;55437;55.046;38.838;2023-07-16T09:26:50;99752.97;;;25.84;50.36
68456;BME280;55437;55.046;38.838;2023-07-16T09:29:17;99749.91;;;25.71;51.52
68456;BME280;55437;55.046;38.838;2023-07-16T09:32:02;99746.28;;;25.72;51.51
68456;BME280;55437;55.046;38.838;2023-07-16T09:34:29;99744.72;;;25.52;51.60
68456;BME280;55437;55.046;38.838;2023-07-16T09:36:56;99750.03;;;25.05;51.72
68456;BME280;55437;55.046;38.838;2023-07-16T09:39:24;99760.16;;;24.81;52.18
68456;BME280;55437;55.046;38.838;2023-07-16T09:41:52;99761.16;;;24.61;53.17
68456;BME280;55437;55.046;38.838;2023-07-16T09:44:18;99758.69;;;24.50;53.50
68456;BME280;55437;55.046;38.838;2023-07-16T09:46:45;99761.97;;;24.52;53.58
68456;BME280;55437;55.046;38.838;2023-07-16T09:49:11;99762.28;;;24.58;53.87
68456;BME280;55437;55.046;38.838;2023-07-16T09:51:39;99758.38;;;24.72;54.59
68456;BME280;55437;55.046;38.838;2023-07-16T09:54:05;99759.88;;;24.84;54.27
68456;BME280;55437;55.046;38.838;2023-07-16T09:56:48;99765.00;;;24.76;53.55
68456;BME280;55437;55.046;38.838;2023-07-16T09:59:17;99759.09;;;24.45;53.54
68456;BME280;55437;55.046;38.838;2023-07-16T10:01:45;99759.25;;;24.24;53.83
68456;BME280;55437;55.046;38.838;2023-07-16T10:04:18;99754.78;;;24.05;53.88
68456;BME280;55437;55.046;38.838;2023-07-16T10:06:55;99757.53;;;24.04;53.97
68456;BME280;55437;55.046;38.838;2023-07-16T10:09:52;99759.06;;;24.06;54.14
68456;BME280;55437;55.046;38.838;2023-07-16T10:12:20;99755.47;;;24.08;54.12
68456;BME280;55437;55.046;38.838;2023-07-16T10:14:54;99755.03;;;23.93;54.14
68456;BME280;55437;55.046;38.838;2023-07-16T10:17:24;99752.28;;;23.94;54.78
68456;BME280;55437;55.046;38.838;2023-07-16T10:19:57;99759.31;;;24.03;54.81
68456;BME280;55437;55.046;38.838;2023-07-16T10:22:42;99760.97;;;24.04;54.92
68456;BME280;55437;55.046;38.838;2023-07-16T10:27:48;99757.31;;;24.26;55.06
68456;BME280;55437;55.046;38.838;2023-07-16T10:30:16;99757.56;;;24.42;55.04
68456;BME280;55437;55.046;38.838;2023-07-16T10:32:44;99755.50;;;24.56;54.49
68456;BME280;55437;55.046;38.838;2023-07-16T10:35:10;99759.22;;;24.63;53.93
68456;BME280;55437;55.046;38.838;2023-07-16T10:37:37;99758.38;;;24.72;54.18
68456;BME280;55437;55.046;38.838;2023-07-16T10:40:10;99753.38;;;24.78;53.60
68456;BME280;55437;55.046;38.838;2023-07-16T10:42:36;99753.91;;;25.01;52.36
68456;BME280;55437;55.046;38.838;2023-07-16T10:45:04;99747.41;;;25.05;52.72
68456;BME280;55437;55.046;38.838;2023-07-16T10:47:35;99756.84;;;24.98;53.34
68456;BME280;55437;55.046;38.838;2023-07-16T10:50:09;99742.19;;;24.86;53.15
68456;BME280;55437;55.046;38.838;2023-07-16T10:52:36;99749.66;;;24.81;53.04
68456;BME280;55437;55.046;38.838;2023-07-16T10:55:03;99740.03;;;24.62;52.87
68456;BME280;55437;55.046;38.838;2023-07-16T10:57:31;99741.72;;;24.34;53.05
68456;BME280;55437;55.046;38.838;2023-07-16T10:59:58;99746.91;;;24.15;53.79
68456;BME280;55437;55.046;38.838;2023-07-16T11:02:25;99749.25;;;23.89;54.43
68456;BME280;55437;55.046;38.838;2023-07-16T11:04:52;99742.03;;;23.72;55.04
68456;BME280;55437;55.046;38.838;2023-07-16T11:07:20;99751.03;;;23.49;55.27
68456;BME280;55437;55.046;38.838;2023-07-16T11:09:54;99746.13;;;23.25;55.59
68456;BME280;55437;55.046;38.838;2023-07-16T11:12:22;99739.31;;;23.13;56.00
68456;BME280;55437;55.046;38.838;2023-07-16T11:14:54;99750.63;;;23.13;56.58
68456;BME280;55437;55.046;38.838;2023-07-16T11:17:23;99754.16;;;23.33;56.82
68456;BME280;55437;55.046;38.838;2023-07-16T11:19:52;99740.63;;;23.58;56.50
68456;BME280;55437;55.046;38.838;2023-07-16T11:22:18;99747.84;;;23.85;56.16
68456;BME280;55437;55.046;38.838;2023-07-16T11:24:49;99741.00;;;24.13;55.57
68456;BME280;55437;55.046;38.838;2023-07-16T11:27:17;99740.44;;;24.29;54.92
68456;BME280;55437;55.046;38.838;2023-07-16T11:29:53;99736.06;;;24.39;54.36
68456;BME280;55437;55.046;38.838;2023-07-16T11:32:42;99737.97;;;24.37;54.20
68456;BME280;55437;55.046;38.838;2023-07-16T11:35:11;99738.81;;;24.37;53.94
68456;BME280;55437;55.046;38.838;2023-07-16T11:37:41;99743.34;;;24.45;53.76
68456;BME280;55437;55.046;38.838;2023-07-16T11:40:10;99741.00;;;24.42;53.13
68456;BME280;55437;55.046;38.838;2023-07-16T11:42:38;99741.97;;;24.41;52.80
68456;BME280;55437;55.046;38.838;2023-07-16T11:45:14;99742.09;;;24.39;52.68
68456;BME280;55437;55.046;38.838;2023-07-16T11:47:40;99735.88;;;24.40;52.59
68456;BME280;55437;55.046;38.838;2023-07-16T11:50:07;99733.44;;;24.39;52.47
68456;BME280;55437;55.046;38.838;2023-07-16T11:52:33;99733.81;;;24.54;52.86
68456;BME280;55437;55.046;38.838;2023-07-16T11:54:59;99734.75;;;24.72;52.75
68456;BME280;55437;55.046;38.838;2023-07-16T11:57:27;99741.59;;;24.92;52.74
68456;BME280;55437;55.046;38.838;2023-07-16T11:59:54;99734.84;;;24.99;52.81
68456;BME280;55437;55.046;38.838;2023-07-16T12:02:21;99735.94;;;25.06;52.63
68456;BME280;55437;55.046;38.838;2023-07-16T12:04:48;99741.22;;;25.24;52.35
68456;BME280;55437;55.046;38.838;2023-07-16T12:07:14;99738.13;;;25.38;51.27
68456;BME280;55437;55.046;38.838;2023-07-16T12:09:40;99738.38;;;25.45;50.30
68456;BME280;55437;55.046;38.838;2023-07-16T12:12:07;99724.66;;;25.51;50.13
68456;BME280;55437;55.046;38.838;2023-07-16T12:14:33;99727.84;;;25.72;49.93
68456;BME280;55437;55.046;38.838;2023-07-16T12:16:59;99730.06;;;25.77;49.47
68456;BME280;55437;55.046;38.838;2023-07-16T12:19:25;99730.97;;;25.58;49.33
68456;BME280;55437;55.046;38.838;2023-07-16T12:21:51;99731.94;;;25.30;49.44
68456;BME280;55437;55.046;38.838;2023-07-16T12:24:17;99729.50;;;25.19;50.14
68456;BME280;55437;55.046;38.838;2023-07-16T12:26:43;99724.69;;;25.14;50.08
68456;BME280;55437;55.046;38.838;2023-07-16T12:29:09;99726.53;;;25.04;49.90
68456;BME280;55437;55.046;38.838;2023-07-16T12:31:36;99727.91;;;24.89;49.90
68456;BME280;55437;55.046;38.838;2023-07-16T12:34:02;99726.97;;;24.80;50.40
68456;BME280;55437;55.046;38.838;2023-07-16T12:36:46;99728.00;;;24.60;50.50
68456;BME280;55437;55.046;38.838;2023-07-16T12:39:13;99717.78;;;24.47;51.21
68456;BME280;55437;55.046;38.838;2023-07-16T12:41:39;99717.13;;;24.35;51.35
68456;BME280;55437;55.046;38.838;2023-07-16T12:44:05;99724.41;;;24.13;51.81
68456;BME280;55437;55.046;38.838;2023-07-16T12:46:31;99733.91;;;24.04;51.60
68456;BME280;55437;55.046;38.838;2023-07-16T12:48:57;99729.94;;;24.00;51.54
68456;BME280;55437;55.046;38.838;2023-07-16T12:51:23;99735.19;;;24.00;51.74
68456;BME280;55437;55.046;38.838;2023-07-16T12:53:48;99736.53;;;24.04;52.01
68456;BME280;55437;55.046;38.838;2023-07-16T12:56:14;99736.97;;;24.09;52.62
68456;BME280;55437;55.046;38.838;2023-07-16T12:58:40;99735.72;;;24.03;52.72
68456;BME280;55437;55.046;38.838;2023-07-16T13:01:06;99726.47;;;24.09;53.08
68456;BME280;55437;55.046;38.838;2023-07-16T13:03:33;99727.19;;;24.11;52.63
68456;BME280;55437;55.046;38.838;2023-07-16T13:05:59;99738.63;;;24.00;52.61